sensor_id;sensor_type;location;lat;lon;timestamp;P1;durP1;ratioP1;P2;durP2;ratioP2
15061;SDS011;7630;50.306;8.566;2023-03-26T00:03:28;24.13;;;4.10;;
15061;SDS011;7630;50.306;8.566;2023-03-26T00:07:30;10.73;;;4.07;;
15061;SDS011;7630;50.306;8.566;2023-03-26T00:11:31;6.40;;;2.93;;
15061;SDS011;7630;50.306;8.566;2023-03-26T00:15:33;8.77;;;3.17;;
15061;SDS011;7630;50.306;8.566;2023-03-26T00:19:35;10.27;;;3.10;;
15061;SDS011;7630;50.306;8.566;2023-03-26T00:23:37;10.87;;;3.27;;
15061;SDS011;7630;50.306;8.566;2023-03-26T00:27:39;11.10;;;4.60;;
15061;SDS011;7630;50.306;8.566;2023-03-26T00:31:45;8.60;;;3.67;;
15061;SDS011;7630;50.306;8.566;2023-03-26T00:35:50;11.17;;;4.53;;
15061;SDS011;7630;50.306;8.566;2023-03-26T00:39:53;10.87;;;3.57;;
15061;SDS011;7630;50.306;8.566;2023-03-26T00:43:59;10.33;;;4.40;;
15061;SDS011;7630;50.306;8.566;2023-03-26T00:48:00;10.73;;;4.07;;
15061;SDS011;7630;50.306;8.566;2023-03-26T00:52:03;11.47;;;3.77;;
15061;SDS011;7630;50.306;8.566;2023-03-26T00:56:04;9.27;;;3.63;;
15061;SDS011;7630;50.306;8.566;2023-03-26T01:00:08;14.97;;;3.40;;
15061;SDS011;7630;50.306;8.566;2023-03-26T01:04:24;11.07;;;4.57;;
15061;SDS011;7630;50.306;8.566;2023-03-26T01:08:27;7.43;;;3.27;;
15061;SDS011;7630;50.306;8.566;2023-03-26T01:12:32;12.47;;;3.47;;
15061;SDS011;7630;50.306;8.566;2023-03-26T01:16:35;11.53;;;3.33;;
15061;SDS011;7630;50.306;8.566;2023-03-26T01:20:38;12.73;;;5.13;;
15061;SDS011;7630;50.306;8.566;2023-03-26T01:24:44;19.83;;;4.10;;
15061;SDS011;7630;50.306;8.566;2023-03-26T01:28:47;13.20;;;3.17;;
15061;SDS011;7630;50.306;8.566;2023-03-26T01:32:53;14.60;;;4.13;;
15061;SDS011;7630;50.306;8.566;2023-03-26T01:37:19;12.53;;;5.33;;
15061;SDS011;7630;50.306;8.566;2023-03-26T01:45:33;14.63;;;3.80;;
15061;SDS011;7630;50.306;8.566;2023-03-26T01:49:36;10.97;;;4.23;;
15061;SDS011;7630;50.306;8.566;2023-03-26T01:53:44;10.03;;;3.60;;
15061;SDS011;7630;50.306;8.566;2023-03-26T01:57:53;18.90;;;4.13;;
15061;SDS011;7630;50.306;8.566;2023-03-26T02:10:34;12.63;;;3.57;;
15061;SDS011;7630;50.306;8.566;2023-03-26T02:14:38;7.93;;;4.97;;
15061;SDS011;7630;50.306;8.566;2023-03-26T02:18:39;14.27;;;5.47;;
15061;SDS011;7630;50.306;8.566;2023-03-26T02:22:40;21.73;;;4.87;;
15061;SDS011;7630;50.306;8.566;2023-03-26T02:26:44;10.60;;;3.97;;
15061;SDS011;7630;50.306;8.566;2023-03-26T02:30:45;12.13;;;3.47;;
15061;SDS011;7630;50.306;8.566;2023-03-26T02:34:47;11.37;;;4.00;;
15061;SDS011;7630;50.306;8.566;2023-03-26T02:38:50;14.07;;;4.23;;
15061;SDS011;7630;50.306;8.566;2023-03-26T02:42:51;11.77;;;5.70;;
15061;SDS011;7630;50.306;8.566;2023-03-26T02:46:52;13.73;;;6.00;;
15061;SDS011;7630;50.306;8.566;2023-03-26T02:50:54;9.93;;;3.67;;
15061;SDS011;7630;50.306;8.566;2023-03-26T02:54:55;12.70;;;3.83;;
15061;SDS011;7630;50.306;8.566;2023-03-26T02:58:56;10.80;;;3.50;;
15061;SDS011;7630;50.306;8.566;2023-03-26T03:02:57;11.00;;;3.60;;
15061;SDS011;7630;50.306;8.566;2023-03-26T03:06:59;16.40;;;4.13;;
15061;SDS011;7630;50.306;8.566;2023-03-26T03:11:01;14.83;;;3.67;;
15061;SDS011;7630;50.306;8.566;2023-03-26T03:15:05;14.80;;;5.53;;
15061;SDS011;7630;50.306;8.566;2023-03-26T03:19:07;13.30;;;3.30;;
15061;SDS011;7630;50.306;8.566;2023-03-26T03:23:08;7.67;;;4.80;;
15061;SDS011;7630;50.306;8.566;2023-03-26T03:27:09;8.90;;;4.13;;
15061;SDS011;7630;50.306;8.566;2023-03-26T03:31:10;7.83;;;3.73;;
15061;SDS011;7630;50.306;8.566;2023-03-26T03:35:11;9.80;;;3.73;;
15061;SDS011;7630;50.306;8.566;2023-03-26T03:39:13;12.33;;;4.27;;
15061;SDS011;7630;50.306;8.566;2023-03-26T03:43:15;10.67;;;4.13;;
15061;SDS011;7630;50.306;8.566;2023-03-26T03:47:16;11.13;;;4.37;;
15061;SDS011;7630;50.306;8.566;2023-03-26T03:51:17;15.33;;;4.30;;
15061;SDS011;7630;50.306;8.566;2023-03-26T03:55:18;12.67;;;3.87;;
15061;SDS011;7630;50.306;8.566;2023-03-26T03:59:19;14.57;;;4.10;;
15061;SDS011;7630;50.306;8.566;2023-03-26T04:03:21;7.10;;;2.97;;
15061;SDS011;7630;50.306;8.566;2023-03-26T04:07:24;8.80;;;4.13;;
15061;SDS011;7630;50.306;8.566;2023-03-26T04:11:25;6.20;;;3.63;;
15061;SDS011;7630;50.306;8.566;2023-03-26T04:15:26;14.47;;;4.80;;
15061;SDS011;7630;50.306;8.566;2023-03-26T04:19:28;10.63;;;4.53;;
15061;SDS011;7630;50.306;8.566;2023-03-26T04:23:29;8.83;;;3.43;;
15061;SDS011;7630;50.306;8.566;2023-03-26T04:27:31;13.80;;;3.80;;
15061;SDS011;7630;50.306;8.566;2023-03-26T04:31:35;9.53;;;4.30;;
15061;SDS011;7630;50.306;8.566;2023-03-26T04:35:37;10.87;;;4.13;;
15061;SDS011;7630;50.306;8.566;2023-03-26T04:39:40;9.67;;;2.83;;
15061;SDS011;7630;50.306;8.566;2023-03-26T04:43:42;10.73;;;3.70;;
15061;SDS011;7630;50.306;8.566;2023-03-26T04:47:45;17.80;;;5.37;;
15061;SDS011;7630;50.306;8.566;2023-03-26T04:51:47;9.30;;;2.87;;
15061;SDS011;7630;50.306;8.566;2023-03-26T04:55:56;12.50;;;3.80;;
15061;SDS011;7630;50.306;8.566;2023-03-26T05:00:03;12.13;;;3.47;;
15061;SDS011;7630;50.306;8.566;2023-03-26T05:04:11;8.20;;;3.87;;
15061;SDS011;7630;50.306;8.566;2023-03-26T05:08:13;12.40;;;3.80;;
15061;SDS011;7630;50.306;8.566;2023-03-26T05:12:14;7.63;;;3.10;;
15061;SDS011;7630;50.306;8.566;2023-03-26T05:16:16;6.97;;;2.97;;
15061;SDS011;7630;50.306;8.566;2023-03-26T05:20:18;6.67;;;3.07;;
15061;SDS011;7630;50.306;8.566;2023-03-26T05:24:21;16.47;;;4.27;;
15061;SDS011;7630;50.306;8.566;2023-03-26T05:28:24;9.87;;;3.70;;
15061;SDS011;7630;50.306;8.566;2023-03-26T05:32:26;9.97;;;3.60;;
15061;SDS011;7630;50.306;8.566;2023-03-26T05:36:27;11.07;;;3.33;;
15061;SDS011;7630;50.306;8.566;2023-03-26T05:40:28;11.07;;;3.40;;
15061;SDS011;7630;50.306;8.566;2023-03-26T05:44:29;15.83;;;3.63;;
15061;SDS011;7630;50.306;8.566;2023-03-26T05:48:30;10.60;;;4.47;;
15061;SDS011;7630;50.306;8.566;2023-03-26T05:52:32;7.83;;;3.30;;
15061;SDS011;7630;50.306;8.566;2023-03-26T05:56:33;9.40;;;4.37;;
15061;SDS011;7630;50.306;8.566;2023-03-26T06:00:34;8.40;;;3.30;;
15061;SDS011;7630;50.306;8.566;2023-03-26T06:04:37;9.87;;;3.80;;
15061;SDS011;7630;50.306;8.566;2023-03-26T06:08:41;7.23;;;3.07;;
15061;SDS011;7630;50.306;8.566;2023-03-26T06:12:43;13.20;;;3.70;;
15061;SDS011;7630;50.306;8.566;2023-03-26T06:16:44;13.80;;;7.20;;
15061;SDS011;7630;50.306;8.566;2023-03-26T06:20:45;15.47;;;4.63;;
15061;SDS011;7630;50.306;8.566;2023-03-26T06:24:46;14.37;;;3.30;;
15061;SDS011;7630;50.306;8.566;2023-03-26T06:28:48;9.87;;;3.87;;
15061;SDS011;7630;50.306;8.566;2023-03-26T06:32:49;7.83;;;3.33;;
15061;SDS011;7630;50.306;8.566;2023-03-26T06:36:50;11.77;;;3.90;;
15061;SDS011;7630;50.306;8.566;2023-03-26T06:40:52;9.27;;;3.00;;
15061;SDS011;7630;50.306;8.566;2023-03-26T06:44:53;9.77;;;3.43;;
15061;SDS011;7630;50.306;8.566;2023-03-26T06:48:54;8.37;;;3.97;;
15061;SDS011;7630;50.306;8.566;2023-03-26T06:52:55;11.93;;;5.87;;
15061;SDS011;7630;50.306;8.566;2023-03-26T06:56:56;7.80;;;5.40;;
15061;SDS011;7630;50.306;8.566;2023-03-26T07:00:59;13.70;;;6.77;;
15061;SDS011;7630;50.306;8.566;2023-03-26T07:05:00;11.47;;;6.77;;
15061;SDS011;7630;50.306;8.566;2023-03-26T07:09:01;13.50;;;9.80;;
15061;SDS011;7630;50.306;8.566;2023-03-26T07:13:03;12.73;;;8.77;;
15061;SDS011;7630;50.306;8.566;2023-03-26T07:17:04;12.43;;;8.00;;
15061;SDS011;7630;50.306;8.566;2023-03-26T07:21:05;14.77;;;8.17;;
15061;SDS011;7630;50.306;8.566;2023-03-26T07:25:07;14.47;;;5.87;;
15061;SDS011;7630;50.306;8.566;2023-03-26T07:29:12;16.53;;;7.07;;
15061;SDS011;7630;50.306;8.566;2023-03-26T07:46:29;20.60;;;8.40;;
15061;SDS011;7630;50.306;8.566;2023-03-26T07:50:33;11.67;;;7.70;;
15061;SDS011;7630;50.306;8.566;2023-03-26T07:54:35;12.73;;;7.77;;
15061;SDS011;7630;50.306;8.566;2023-03-26T07:58:48;14.87;;;7.60;;
15061;SDS011;7630;50.306;8.566;2023-03-26T08:07:16;11.27;;;7.13;;
15061;SDS011;7630;50.306;8.566;2023-03-26T08:20:10;11.10;;;7.03;;
15061;SDS011;7630;50.306;8.566;2023-03-26T08:32:39;11.20;;;5.67;;
15061;SDS011;7630;50.306;8.566;2023-03-26T08:36:40;15.10;;;7.13;;
15061;SDS011;7630;50.306;8.566;2023-03-26T08:53:55;9.43;;;5.33;;
15061;SDS011;7630;50.306;8.566;2023-03-26T09:15:04;7.70;;;6.47;;
15061;SDS011;7630;50.306;8.566;2023-03-26T09:23:42;13.63;;;11.90;;
15061;SDS011;7630;50.306;8.566;2023-03-26T09:32:37;13.10;;;8.73;;
15061;SDS011;7630;50.306;8.566;2023-03-26T09:36:53;17.47;;;9.63;;
15061;SDS011;7630;50.306;8.566;2023-03-26T09:41:12;9.80;;;7.37;;
15061;SDS011;7630;50.306;8.566;2023-03-26T10:37:24;12.37;;;5.27;;
15061;SDS011;7630;50.306;8.566;2023-03-26T10:54:14;8.80;;;5.67;;
15061;SDS011;7630;50.306;8.566;2023-03-26T10:58:22;8.43;;;6.17;;
15061;SDS011;7630;50.306;8.566;2023-03-26T11:02:30;5.27;;;4.83;;
15061;SDS011;7630;50.306;8.566;2023-03-26T11:06:39;6.50;;;5.27;;
15061;SDS011;7630;50.306;8.566;2023-03-26T11:10:47;10.30;;;8.93;;
15061;SDS011;7630;50.306;8.566;2023-03-26T11:23:38;7.37;;;6.03;;
15061;SDS011;7630;50.306;8.566;2023-03-26T11:36:29;8.03;;;7.23;;
15061;SDS011;7630;50.306;8.566;2023-03-26T11:40:37;9.40;;;5.53;;
15061;SDS011;7630;50.306;8.566;2023-03-26T11:44:48;7.60;;;5.47;;
15061;SDS011;7630;50.306;8.566;2023-03-26T11:49:03;6.77;;;5.07;;
15061;SDS011;7630;50.306;8.566;2023-03-26T11:53:10;11.57;;;4.77;;
15061;SDS011;7630;50.306;8.566;2023-03-26T11:57:15;5.00;;;3.13;;
15061;SDS011;7630;50.306;8.566;2023-03-26T12:01:24;6.57;;;4.13;;
15061;SDS011;7630;50.306;8.566;2023-03-26T12:05:30;4.63;;;2.80;;
15061;SDS011;7630;50.306;8.566;2023-03-26T12:09:33;5.17;;;3.47;;
15061;SDS011;7630;50.306;8.566;2023-03-26T12:13:38;5.30;;;3.60;;
15061;SDS011;7630;50.306;8.566;2023-03-26T12:17:49;6.47;;;3.53;;
15061;SDS011;7630;50.306;8.566;2023-03-26T12:21:56;5.50;;;4.03;;
15061;SDS011;7630;50.306;8.566;2023-03-26T12:26:04;6.37;;;4.17;;
15061;SDS011;7630;50.306;8.566;2023-03-26T12:30:21;22.40;;;9.23;;
15061;SDS011;7630;50.306;8.566;2023-03-26T12:34:37;32.03;;;13.13;;
15061;SDS011;7630;50.306;8.566;2023-03-26T12:38:39;7.10;;;6.40;;
15061;SDS011;7630;50.306;8.566;2023-03-26T12:42:42;3.73;;;2.00;;
15061;SDS011;7630;50.306;8.566;2023-03-26T12:46:48;2.50;;;2.00;;
15061;SDS011;7630;50.306;8.566;2023-03-26T13:12:31;1.30;;;1.10;;
15061;SDS011;7630;50.306;8.566;2023-03-26T13:34:29;1.10;;;1.00;;
15061;SDS011;7630;50.306;8.566;2023-03-26T13:43:02;1.10;;;1.10;;
15061;SDS011;7630;50.306;8.566;2023-03-26T13:47:03;3.23;;;1.00;;
15061;SDS011;7630;50.306;8.566;2023-03-26T13:51:17;1.43;;;1.33;;
15061;SDS011;7630;50.306;8.566;2023-03-26T14:09:01;0.87;;;0.70;;
15061;SDS011;7630;50.306;8.566;2023-03-26T14:16:23;0.80;;;0.80;;
15061;SDS011;7630;50.306;8.566;2023-03-26T14:42:23;0.80;;;0.80;;
15061;SDS011;7630;50.306;8.566;2023-03-26T14:46:35;2.97;;;0.97;;
15061;SDS011;7630;50.306;8.566;2023-03-26T14:55:15;3.13;;;1.50;;
15061;SDS011;7630;50.306;8.566;2023-03-26T15:17:15;2.40;;;1.30;;
15061;SDS011;7630;50.306;8.566;2023-03-26T15:25:55;5.77;;;2.13;;
15061;SDS011;7630;50.306;8.566;2023-03-26T15:43:30;3.57;;;3.27;;
15061;SDS011;7630;50.306;8.566;2023-03-26T16:01:09;3.07;;;2.73;;
15061;SDS011;7630;50.306;8.566;2023-03-26T16:05:25;1.67;;;1.57;;
15061;SDS011;7630;50.306;8.566;2023-03-26T16:09:34;1.40;;;1.03;;
15061;SDS011;7630;50.306;8.566;2023-03-26T16:13:49;6.60;;;2.13;;
15061;SDS011;7630;50.306;8.566;2023-03-26T16:39:40;9.47;;;8.67;;
15061;SDS011;7630;50.306;8.566;2023-03-26T16:43:49;17.73;;;16.13;;
15061;SDS011;7630;50.306;8.566;2023-03-26T16:52:21;1.90;;;1.80;;
15061;SDS011;7630;50.306;8.566;2023-03-26T16:56:27;1.60;;;1.50;;
15061;SDS011;7630;50.306;8.566;2023-03-26T17:00:53;2.00;;;1.90;;
15061;SDS011;7630;50.306;8.566;2023-03-26T17:13:46;2.07;;;1.17;;
15061;SDS011;7630;50.306;8.566;2023-03-26T17:22:28;1.97;;;1.87;;
15061;SDS011;7630;50.306;8.566;2023-03-26T17:43:47;1.77;;;1.67;;
15061;SDS011;7630;50.306;8.566;2023-03-26T17:52:23;1.80;;;1.70;;
15061;SDS011;7630;50.306;8.566;2023-03-26T17:56:26;3.17;;;2.15;;
15061;SDS011;7630;50.306;8.566;2023-03-26T18:00:35;2.67;;;2.47;;
15061;SDS011;7630;50.306;8.566;2023-03-26T18:04:35;1.87;;;1.77;;
15061;SDS011;7630;50.306;8.566;2023-03-26T18:17:26;2.13;;;1.97;;
15061;SDS011;7630;50.306;8.566;2023-03-26T18:21:33;3.17;;;1.70;;
15061;SDS011;7630;50.306;8.566;2023-03-26T18:25:35;2.40;;;2.30;;
15061;SDS011;7630;50.306;8.566;2023-03-26T18:29:41;2.70;;;2.50;;
15061;SDS011;7630;50.306;8.566;2023-03-26T18:34:01;6.17;;;3.67;;
15061;SDS011;7630;50.306;8.566;2023-03-26T18:38:05;4.13;;;3.77;;
15061;SDS011;7630;50.306;8.566;2023-03-26T18:42:08;5.47;;;4.87;;
15061;SDS011;7630;50.306;8.566;2023-03-26T18:46:12;11.40;;;10.20;;
15061;SDS011;7630;50.306;8.566;2023-03-26T18:50:15;5.17;;;4.77;;
15061;SDS011;7630;50.306;8.566;2023-03-26T18:54:18;5.37;;;4.87;;
15061;SDS011;7630;50.306;8.566;2023-03-26T18:58:22;8.13;;;7.27;;
15061;SDS011;7630;50.306;8.566;2023-03-26T19:02:36;3.83;;;3.53;;
15061;SDS011;7630;50.306;8.566;2023-03-26T19:06:39;4.97;;;4.63;;
15061;SDS011;7630;50.306;8.566;2023-03-26T19:10:42;5.93;;;5.43;;
15061;SDS011;7630;50.306;8.566;2023-03-26T19:15:01;6.00;;;5.47;;
15061;SDS011;7630;50.306;8.566;2023-03-26T19:18:57;6.47;;;5.83;;
15061;SDS011;7630;50.306;8.566;2023-03-26T19:22:59;6.13;;;5.73;;
15061;SDS011;7630;50.306;8.566;2023-03-26T19:27:01;6.30;;;5.80;;
15061;SDS011;7630;50.306;8.566;2023-03-26T19:31:07;6.50;;;6.00;;
15061;SDS011;7630;50.306;8.566;2023-03-26T19:35:22;4.90;;;4.50;;
15061;SDS011;7630;50.306;8.566;2023-03-26T19:39:23;5.50;;;5.10;;
15061;SDS011;7630;50.306;8.566;2023-03-26T19:43:27;3.60;;;3.40;;
15061;SDS011;7630;50.306;8.566;2023-03-26T19:47:39;3.20;;;3.00;;
15061;SDS011;7630;50.306;8.566;2023-03-26T19:51:43;3.27;;;3.07;;
15061;SDS011;7630;50.306;8.566;2023-03-26T19:55:52;2.57;;;2.47;;
15061;SDS011;7630;50.306;8.566;2023-03-26T19:59:55;2.30;;;2.20;;
15061;SDS011;7630;50.306;8.566;2023-03-26T20:03:59;2.80;;;2.60;;
15061;SDS011;7630;50.306;8.566;2023-03-26T20:08:14;3.23;;;3.03;;
15061;SDS011;7630;50.306;8.566;2023-03-26T20:12:14;3.57;;;3.37;;
15061;SDS011;7630;50.306;8.566;2023-03-26T20:16:20;3.20;;;3.00;;
15061;SDS011;7630;50.306;8.566;2023-03-26T20:20:33;3.00;;;2.70;;
15061;SDS011;7630;50.306;8.566;2023-03-26T20:24:36;2.20;;;2.10;;
15061;SDS011;7630;50.306;8.566;2023-03-26T20:28:37;1.77;;;1.67;;
15061;SDS011;7630;50.306;8.566;2023-03-26T20:32:40;1.63;;;1.53;;
15061;SDS011;7630;50.306;8.566;2023-03-26T20:36:44;1.50;;;1.40;;
15061;SDS011;7630;50.306;8.566;2023-03-26T20:40:46;1.50;;;1.50;;
15061;SDS011;7630;50.306;8.566;2023-03-26T20:44:48;1.87;;;1.77;;
15061;SDS011;7630;50.306;8.566;2023-03-26T20:48:49;1.43;;;1.33;;
15061;SDS011;7630;50.306;8.566;2023-03-26T20:52:51;1.60;;;1.50;;
15061;SDS011;7630;50.306;8.566;2023-03-26T20:56:53;1.43;;;1.30;;
15061;SDS011;7630;50.306;8.566;2023-03-26T21:00:58;1.67;;;1.57;;
15061;SDS011;7630;50.306;8.566;2023-03-26T21:04:59;1.60;;;1.50;;
15061;SDS011;7630;50.306;8.566;2023-03-26T21:09:01;2.00;;;1.90;;
15061;SDS011;7630;50.306;8.566;2023-03-26T21:13:05;1.70;;;1.60;;
15061;SDS011;7630;50.306;8.566;2023-03-26T21:17:18;2.03;;;1.93;;
15061;SDS011;7630;50.306;8.566;2023-03-26T21:21:31;1.50;;;1.50;;
15061;SDS011;7630;50.306;8.566;2023-03-26T21:25:47;1.60;;;1.50;;
15061;SDS011;7630;50.306;8.566;2023-03-26T21:29:52;1.83;;;1.73;;
15061;SDS011;7630;50.306;8.566;2023-03-26T21:33:54;2.13;;;2.00;;
15061;SDS011;7630;50.306;8.566;2023-03-26T21:37:58;1.50;;;1.50;;
15061;SDS011;7630;50.306;8.566;2023-03-26T21:42:01;2.43;;;2.20;;
15061;SDS011;7630;50.306;8.566;2023-03-26T21:46:04;2.23;;;2.13;;
15061;SDS011;7630;50.306;8.566;2023-03-26T21:50:06;2.77;;;2.57;;
15061;SDS011;7630;50.306;8.566;2023-03-26T21:54:22;2.50;;;2.30;;
15061;SDS011;7630;50.306;8.566;2023-03-26T22:07:05;2.93;;;2.63;;
15061;SDS011;7630;50.306;8.566;2023-03-26T22:11:14;3.00;;;2.80;;
15061;SDS011;7630;50.306;8.566;2023-03-26T22:15:15;2.53;;;2.30;;
15061;SDS011;7630;50.306;8.566;2023-03-26T22:19:17;3.60;;;3.10;;
15061;SDS011;7630;50.306;8.566;2023-03-26T22:23:18;3.03;;;2.80;;
15061;SDS011;7630;50.306;8.566;2023-03-26T22:27:20;3.30;;;3.07;;
15061;SDS011;7630;50.306;8.566;2023-03-26T22:31:22;6.43;;;3.67;;
15061;SDS011;7630;50.306;8.566;2023-03-26T22:35:26;5.87;;;4.40;;
15061;SDS011;7630;50.306;8.566;2023-03-26T22:39:27;6.30;;;4.50;;
15061;SDS011;7630;50.306;8.566;2023-03-26T22:43:29;6.23;;;5.63;;
15061;SDS011;7630;50.306;8.566;2023-03-26T22:47:30;6.43;;;5.47;;
15061;SDS011;7630;50.306;8.566;2023-03-26T22:51:33;8.90;;;7.17;;
15061;SDS011;7630;50.306;8.566;2023-03-26T22:55:34;14.97;;;6.23;;
15061;SDS011;7630;50.306;8.566;2023-03-26T22:59:36;8.33;;;6.63;;
15061;SDS011;7630;50.306;8.566;2023-03-26T23:03:37;16.13;;;7.73;;
15061;SDS011;7630;50.306;8.566;2023-03-26T23:07:39;11.57;;;7.37;;
15061;SDS011;7630;50.306;8.566;2023-03-26T23:11:41;11.00;;;7.10;;
15061;SDS011;7630;50.306;8.566;2023-03-26T23:15:43;13.80;;;9.00;;
15061;SDS011;7630;50.306;8.566;2023-03-26T23:19:44;12.93;;;9.73;;
15061;SDS011;7630;50.306;8.566;2023-03-26T23:23:46;11.80;;;8.47;;
15061;SDS011;7630;50.306;8.566;2023-03-26T23:27:49;20.63;;;10.93;;
15061;SDS011;7630;50.306;8.566;2023-03-26T23:31:50;18.60;;;11.53;;
15061;SDS011;7630;50.306;8.566;2023-03-26T23:35:53;16.47;;;8.70;;
15061;SDS011;7630;50.306;8.566;2023-03-26T23:39:59;25.13;;;9.10;;
15061;SDS011;7630;50.306;8.566;2023-03-26T23:44:00;15.30;;;8.13;;
15061;SDS011;7630;50.306;8.566;2023-03-26T23:48:02;19.90;;;9.43;;
15061;SDS011;7630;50.306;8.566;2023-03-26T23:52:04;11.90;;;7.70;;
15061;SDS011;7630;50.306;8.566;2023-03-26T23:56:05;12.30;;;7.87;;
